• Join FlightAware (Why Join?)
  • Login
  • US Flag 
03:40AM EDT


 

Airport Tracker/Info


-or-


 

Live Flight TrackerFlight Track Log ✈ N525MB ✈ 29-Apr-2013 ✈ KAFJ - KOSU

Flight Track Log - Related Links

Times and Time Zones

All times are in EDT time to prevent confusion due to time zone crossing. See the N525MB flight status page for this flight to view local times or setup timezone preferences in your user account.

Time Position Orientation Groundspeed Altitude Reporting Facility
EDT Latitude Longitude Course Direction KTS MPH feet Rate Location/Type
01:01PM 40.1567 -80.4308 270° West 223 257 7,000  Level Cleveland Center
01:02PM 40.1525 -80.5097 266° West 218 251 9,000 960 Climbing Cleveland Center
01:03PM 40.1525 -80.6131 270° West 240 276 9,000 1,620 Level Cleveland Center
01:04PM 40.1525 -80.7025 270° West 264 304 12,300 2,700 Climbing Cleveland Center
01:05PM 40.1378 -80.7842 257° West 259 298 14,500 1,800 Climbing Cleveland Center
01:06PM 40.1167 -80.9339 270° West  Level FlightAware Approximate
01:06PM 40.1231 -80.8764 258° West 252 290 15,900  Level Cleveland Center
01:07PM 40.1247 -80.9875 271° West 281 323 15,900  Level Cleveland Center
01:09PM 40.1167 -81.1594 267° West 321 369 16,000  Climbing Indianapolis Center
01:10PM 40.1147 -81.2742 269° West 315 362 16,000  Level Indianapolis Center
01:11PM 40.1128 -81.3892 269° West 314 361 16,000  Level Indianapolis Center
01:12PM 40.1131 -81.5053 270° West 316 364 16,000  Level Indianapolis Center
01:13PM 40.1111 -81.6206 269° West 315 362 16,000  Level Indianapolis Center
01:14PM 40.1078 -81.7361 268° West 315 362 16,000 -300 Level Indianapolis Center
01:15PM 40.1067 -81.8625 269° West 317 365 15,400 -720 Descending Indianapolis Center
01:15PM 40.1058 -81.9358 269° West 320 368 14,900 -900 Descending Indianapolis Center
01:16PM 40.1039 -81.9781 267° West 316 364 14,500 -900 Descending Indianapolis Center
01:16PM 40.1031 -82.0553 269° West 306 352 13,900 -900 Descending Indianapolis Center
01:17PM 40.1025 -82.0872 269° West 302 348 13,600 -1,020 Descending Indianapolis Center
01:17PM 40.0992 -82.1531 266° West 294 338 13,000 -900 Descending Indianapolis Center
01:18PM 40.0981 -82.1942 268° West 295 339 12,700 -1,020 Descending Indianapolis Center
01:18PM 40.0947 -82.2586 266° West 291 335 12,000 -1,200 Descending Indianapolis Center
01:19PM 40.0967 -82.3003 274° West 291 335 11,500 -1,320 Descending Indianapolis Center
01:19PM 40.0942 -82.3703 267° West 286 329 10,700 -1,380 Descending Indianapolis Center
01:20PM 40.0925 -82.4217 268° West 285 328 10,100 -1,440 Descending Indianapolis Center
01:20PM 40.0919 -82.4708 269° West 282 325 9,300 -1,560 Descending Indianapolis Center
01:21PM 40.0908 -82.5264 269° West 287 330 8,500 -1,500 Descending Indianapolis Center
01:21PM 40.0894 -82.5742 268° West 285 328 7,800 -1,620 Descending Indianapolis Center
01:22PM 40.0892 -82.6261 270° West 276 318 6,900 -1,680 Descending Indianapolis Center
01:22PM 40.0875 -82.6692 267° West 265 305 6,100 -2,040 Descending Indianapolis Center
01:23PM 40.0875 -82.7197 270° West 258 297 4,800 -2,280 Descending Indianapolis Center
01:23PM 40.0856 -82.7617 267° West 251 289 3,800 -1,680 Descending Indianapolis Center
01:24PM 40.0850 -82.8114 269° West 255 293 3,100 -840 Descending Indianapolis Center
01:24PM 40.0819 -82.8483 264° West 207 238 3,000 -420 Descending Indianapolis Center
01:25PM 40.0819 -82.8844 270° West 219 252 2,700 -720 Descending Indianapolis Center
01:25PM 40.0797 -82.9136 264° West 186 214 2,400 -420 Descending Indianapolis Center
01:26PM 40.0808 -82.9525 272° West 198 228 2,300 -180 Descending Indianapolis Center
01:27PM 40.0806 -82.9928 269° West 175 201 2,200 -600 Descending Indianapolis Center
01:27PM 40.0800 -83.0169 268° West 185 213 1,700 -1,020 Descending Indianapolis Center
01:28PM 40.0767 -83.0522 263° West 159 183 1,200 -420 Descending Indianapolis Center
01:28PM 40.0783 -83.0811 274° West 180 207 1,300 120 Climbing Indianapolis Center
01:30PM 40.0798 -83.0732 North  Level Estimated